createdAt,value
2019-04-25T00:02:33.139Z,99565.67
2019-04-25T00:05:08.425Z,99564.17
2019-04-25T00:07:43.621Z,99561.47
2019-04-25T00:10:17.941Z,99567.17
2019-04-25T00:12:51.869Z,99562.29
2019-04-25T00:15:25.835Z,99562.31
2019-04-25T00:18:00.098Z,99556.95
2019-04-25T00:20:35.605Z,99553.36
2019-04-25T00:23:14.130Z,99564.88
2019-04-25T00:26:05.873Z,99560.17
2019-04-25T00:28:40.621Z,99566.70
2019-04-25T00:31:16.080Z,99559.44
2019-04-25T00:33:50.103Z,99563.02
2019-04-25T00:36:24.347Z,99566.33
2019-04-25T00:38:58.207Z,99559.34
2019-04-25T00:41:34.074Z,99564.67
2019-04-25T00:44:07.900Z,99562.99
2019-04-25T00:46:44.843Z,99558.63
2019-04-25T00:49:17.284Z,99539.34
2019-04-25T00:51:52.363Z,99562.80
2019-04-25T00:54:26.708Z,99566.61
2019-04-25T00:57:02.119Z,99563.29
2019-04-25T00:59:44.298Z,99561.67
2019-04-25T01:02:23.592Z,99560.18
2019-04-25T01:04:57.735Z,99562.16
2019-04-25T01:07:32.436Z,99565.94
2019-04-25T01:10:07.772Z,99566.70
2019-04-25T01:12:41.790Z,99567.16
2019-04-25T01:15:15.715Z,99567.84
2019-04-25T01:17:51.238Z,99564.52
2019-04-25T01:20:25.491Z,99565.45
2019-04-25T01:23:00.814Z,99569.98
2019-04-25T01:25:40.957Z,99564.48
2019-04-25T01:28:09.825Z,99565.22
2019-04-25T01:30:44.051Z,99561.89
2019-04-25T01:33:17.909Z,99560.86
2019-04-25T01:35:56.949Z,99566.72
2019-04-25T01:38:33.529Z,99564.63
2019-04-25T01:41:27.363Z,99560.65
2019-04-25T01:44:05.614Z,99557.02
2019-04-25T01:46:41.172Z,99561.76
2019-04-25T01:49:15.029Z,99558.90
2019-04-25T01:51:48.944Z,99557.27
2019-04-25T01:54:23.802Z,99553.59
2019-04-25T01:56:57.918Z,99556.41
2019-04-25T01:59:33.715Z,99552.26
2019-04-25T02:02:09.461Z,99550.34
2019-04-25T02:04:44.308Z,99543.51
2019-04-25T02:07:18.678Z,99552.38
2019-04-25T02:09:53.952Z,99545.97
2019-04-25T02:12:29.165Z,99547.00
2019-04-25T02:15:05.955Z,99544.13
2019-04-25T02:17:38.669Z,99542.16
2019-04-25T02:20:13.955Z,99541.00
2019-04-25T02:22:48.093Z,99541.94
2019-04-25T02:25:24.561Z,99542.66
2019-04-25T02:28:01.509Z,99540.98
2019-04-25T02:30:35.588Z,99541.92
2019-04-25T02:33:09.761Z,99542.86
2019-04-25T02:35:46.508Z,99543.02
2019-04-25T02:38:19.251Z,99539.61
2019-04-25T02:40:57.200Z,99544.52
2019-04-25T02:43:29.014Z,99538.84
2019-04-25T02:46:07.604Z,99543.74
2019-04-25T02:48:43.987Z,99541.67
2019-04-25T02:51:19.103Z,99538.42
2019-04-25T02:53:57.812Z,99536.88
2019-04-25T02:56:37.603Z,99534.82
2019-04-25T02:59:09.121Z,99537.16
2019-04-25T03:01:44.493Z,99536.86
2019-04-25T03:04:18.729Z,99537.79
2019-04-25T03:06:51.940Z,99539.66
2019-04-25T03:09:25.701Z,99532.39
2019-04-25T03:11:59.969Z,99538.70
2019-04-25T03:14:35.268Z,99533.96
2019-04-25T03:17:10.379Z,99531.86
2019-04-25T03:19:45.825Z,99538.48
2019-04-25T03:22:31.106Z,99530.08
2019-04-25T03:25:10.807Z,99534.89
2019-04-25T03:27:44.001Z,99545.94
2019-04-25T03:30:18.431Z,99544.15
2019-04-25T03:32:52.435Z,99540.66
2019-04-25T03:35:26.393Z,99540.73
2019-04-25T03:38:01.150Z,99543.02
2019-04-25T03:40:35.058Z,99536.77
2019-04-25T03:43:09.069Z,99537.54
2019-04-25T03:45:43.219Z,99533.58
2019-04-25T03:48:17.760Z,99537.92
2019-04-25T03:50:51.571Z,99534.43
2019-04-25T03:53:25.436Z,99536.99
2019-04-25T03:55:59.278Z,99540.57
2019-04-25T03:58:33.793Z,99535.12
2019-04-25T04:01:09.299Z,99538.62
2019-04-25T04:03:44.063Z,99530.77
2019-04-25T04:06:18.124Z,99529.61
2019-04-25T04:08:53.784Z,99534.51
2019-04-25T04:11:27.710Z,99532.45
2019-04-25T04:14:01.541Z,99542.05
2019-04-25T04:16:36.904Z,99539.05
2019-04-25T04:19:10.880Z,99538.94
2019-04-25T04:21:53.198Z,99539.05
2019-04-25T04:24:28.832Z,99539.80
2019-04-25T04:27:09.042Z,99540.10
2019-04-25T04:29:44.831Z,99542.03
2019-04-25T04:32:18.597Z,99543.47
2019-04-25T04:34:53.670Z,99546.14
2019-04-25T04:37:27.803Z,99545.34
2019-04-25T04:40:03.420Z,99548.40
2019-04-25T04:42:37.359Z,99548.33
2019-04-25T04:45:12.412Z,99551.42
2019-04-25T04:47:47.224Z,99551.27
2019-04-25T04:50:21.168Z,99547.14
2019-04-25T04:52:55.157Z,99561.45
2019-04-25T04:55:29.159Z,99551.37
2019-04-25T04:58:04.247Z,99560.30
2019-04-25T05:00:39.785Z,99559.50
2019-04-25T05:03:18.845Z,99563.02
2019-04-25T05:06:14.866Z,99559.78
2019-04-25T05:08:49.569Z,99568.93
2019-04-25T05:11:25.225Z,99568.03
2019-04-25T05:13:59.172Z,99566.86
2019-04-25T05:16:33.277Z,99558.83
2019-04-25T05:19:06.319Z,99558.05
2019-04-25T05:21:40.206Z,99559.41
2019-04-25T05:24:16.041Z,99556.60
2019-04-25T05:26:49.719Z,99556.27
2019-04-25T05:29:26.502Z,99551.03
2019-04-25T05:31:59.300Z,99542.52
2019-04-25T05:34:34.437Z,99530.16
2019-04-25T05:37:08.647Z,99530.95
2019-04-25T05:39:43.377Z,99543.94
2019-04-25T05:42:28.067Z,99549.77
2019-04-25T05:45:02.057Z,99542.98
2019-04-25T05:47:35.977Z,99541.52
2019-04-25T05:50:10.048Z,99532.77
2019-04-25T05:52:43.887Z,99532.31
2019-04-25T05:55:19.902Z,99518.64
2019-04-25T05:57:53.710Z,99521.98
2019-04-25T06:00:27.131Z,99515.95
2019-04-25T06:03:01.049Z,99530.92
2019-04-25T06:05:35.018Z,99526.42
2019-04-25T06:08:08.116Z,99519.92
2019-04-25T06:10:45.207Z,99513.64
2019-04-25T06:13:21.687Z,99516.66
2019-04-25T06:15:57.881Z,99528.06
2019-04-25T06:18:36.117Z,99528.95
2019-04-25T06:21:13.215Z,99526.34
2019-04-25T06:24:05.356Z,99524.94
2019-04-25T06:26:40.913Z,99530.94
2019-04-25T06:29:14.897Z,99517.67
2019-04-25T06:31:48.123Z,99518.38
2019-04-25T06:34:22.018Z,99527.34
2019-04-25T06:36:55.913Z,99531.36
2019-04-25T06:39:29.861Z,99534.45
2019-04-25T06:42:04.093Z,99529.88
2019-04-25T06:44:39.761Z,99540.09
2019-04-25T06:47:25.404Z,99540.80
2019-04-25T06:49:59.449Z,99536.20
2019-04-25T06:52:35.340Z,99537.00
2019-04-25T06:55:09.631Z,99536.50
2019-04-25T06:57:44.142Z,99538.66
2019-04-25T07:00:19.853Z,99539.09
2019-04-25T07:02:53.721Z,99527.45
2019-04-25T07:05:33.977Z,99532.40
2019-04-25T07:08:03.473Z,99531.59
2019-04-25T07:10:36.595Z,99538.36
2019-04-25T07:13:10.599Z,99533.83
2019-04-25T07:15:46.921Z,99528.30
2019-04-25T07:18:24.806Z,99532.68
2019-04-25T07:20:58.695Z,99542.28
2019-04-25T07:23:33.397Z,99539.78
2019-04-25T07:26:09.109Z,99538.59
2019-04-25T07:28:44.961Z,99537.73
2019-04-25T07:31:37.067Z,99525.98
2019-04-25T07:34:15.500Z,99532.61
2019-04-25T07:36:49.365Z,99533.75
2019-04-25T07:39:23.606Z,99531.55
2019-04-25T07:41:57.866Z,99530.36
2019-04-25T07:44:42.889Z,99525.58
2019-04-25T07:47:08.249Z,99527.12
2019-04-25T07:49:43.294Z,99524.11
2019-04-25T07:52:17.633Z,99521.39
2019-04-25T07:54:51.529Z,99520.17
2019-04-25T07:57:25.457Z,99521.02
2019-04-25T07:59:59.529Z,99518.46
2019-04-25T08:02:35.079Z,99511.73
2019-04-25T08:05:14.477Z,99511.21
2019-04-25T08:07:48.603Z,99509.64
2019-04-25T08:10:24.733Z,99510.95
2019-04-25T08:12:58.555Z,99518.85
2019-04-25T08:15:40.467Z,99518.93
2019-04-25T08:18:14.744Z,99513.20
2019-04-25T08:20:49.824Z,99510.56
2019-04-25T08:23:24.785Z,99511.25
2019-04-25T08:25:58.803Z,99516.05
2019-04-25T08:28:34.469Z,99509.44
2019-04-25T08:31:08.425Z,99511.51
2019-04-25T08:33:43.493Z,99510.11
2019-04-25T08:36:18.047Z,99508.27
2019-04-25T08:38:53.492Z,99512.50
2019-04-25T08:41:27.535Z,99519.43
2019-04-25T08:44:01.482Z,99514.05
2019-04-25T08:46:36.829Z,99511.75
2019-04-25T08:49:21.650Z,99508.38
2019-04-25T08:51:57.156Z,99521.25
2019-04-25T08:54:39.720Z,99527.92
2019-04-25T08:57:28.128Z,99526.73
2019-04-25T09:00:04.251Z,99508.12
2019-04-25T09:02:44.849Z,99527.13
2019-04-25T09:05:26.937Z,99529.50
2019-04-25T09:08:00.992Z,99502.20
2019-04-25T09:10:37.052Z,99533.85
2019-04-25T09:13:10.701Z,99526.70
2019-04-25T09:15:45.763Z,99523.23
2019-04-25T09:18:19.737Z,99530.45
2019-04-25T09:20:54.094Z,99543.17
2019-04-25T09:23:29.515Z,99544.01
2019-04-25T09:26:04.018Z,99540.48
2019-04-25T09:28:40.760Z,99540.89
2019-04-25T09:31:14.807Z,99538.23
2019-04-25T09:33:54.177Z,99533.06
2019-04-25T09:36:27.047Z,99542.25
2019-04-25T09:39:03.783Z,99539.56
2019-04-25T09:41:37.950Z,99535.47
2019-04-25T09:44:14.414Z,99540.59
2019-04-25T09:46:48.561Z,99544.88
2019-04-25T09:49:25.117Z,99553.14
2019-04-25T09:52:00.631Z,99542.05
2019-04-25T09:54:36.395Z,99538.11
2019-04-25T09:57:13.518Z,99539.78
2019-04-25T09:59:48.155Z,99543.19
2019-04-25T10:02:23.326Z,99550.25
2019-04-25T10:04:57.121Z,99537.16
2019-04-25T10:07:31.067Z,99534.97
2019-04-25T10:10:06.991Z,99539.95
2019-04-25T10:12:41.152Z,99539.89
2019-04-25T10:15:44.098Z,99545.55
2019-04-25T10:18:18.018Z,99538.42
2019-04-25T10:20:54.167Z,99532.22
2019-04-25T10:23:28.529Z,99532.81
2019-04-25T10:26:03.848Z,99531.39
2019-04-25T10:28:38.725Z,99533.55
2019-04-25T10:31:13.724Z,99537.51
2019-04-25T10:33:48.645Z,99537.96
2019-04-25T10:36:22.982Z,99533.75
2019-04-25T10:39:06.870Z,99531.78
2019-04-25T10:41:35.880Z,99522.73
2019-04-25T10:44:10.326Z,99522.96
2019-04-25T10:46:46.846Z,99529.25
2019-04-25T10:49:20.251Z,99525.91
2019-04-25T10:51:54.531Z,99524.30
2019-04-25T10:54:28.498Z,99525.86
2019-04-25T10:57:02.490Z,99519.39
2019-04-25T10:59:36.501Z,99511.63
2019-04-25T11:02:11.479Z,99512.67
2019-04-25T11:05:03.549Z,99509.55
2019-04-25T11:07:37.565Z,99514.78
2019-04-25T11:10:11.628Z,99511.31
2019-04-25T11:12:47.335Z,99524.89
2019-04-25T11:15:23.374Z,99514.65
2019-04-25T11:17:57.477Z,99517.92
2019-04-25T11:20:31.778Z,99511.89
2019-04-25T11:23:05.681Z,99508.89
2019-04-25T11:25:39.627Z,99513.88
2019-04-25T11:28:14.358Z,99515.02
2019-04-25T11:30:48.496Z,99508.70
2019-04-25T11:33:22.980Z,99512.49
2019-04-25T11:35:58.507Z,99511.69
2019-04-25T11:38:49.708Z,99513.89
2019-04-25T11:41:24.844Z,99501.73
2019-04-25T11:44:00.458Z,99503.75
2019-04-25T11:46:34.579Z,99511.48
2019-04-25T11:49:07.832Z,99512.08
2019-04-25T11:51:41.841Z,99515.30
2019-04-25T11:54:16.672Z,99507.81
2019-04-25T11:56:51.314Z,99510.84
2019-04-25T11:59:25.468Z,99503.47
2019-04-25T12:01:59.703Z,99508.25
2019-04-25T12:04:33.527Z,99517.91
2019-04-25T12:07:08.615Z,99504.91
2019-04-25T12:09:45.524Z,99507.98
2019-04-25T12:12:18.836Z,99508.84
2019-04-25T12:14:54.991Z,99507.35
2019-04-25T12:17:28.252Z,99508.02
2019-04-25T12:20:03.484Z,99511.05
2019-04-25T12:22:37.725Z,99515.77
2019-04-25T12:25:10.845Z,99511.75
2019-04-25T12:27:48.092Z,99509.88
2019-04-25T12:30:36.158Z,99517.50
2019-04-25T12:32:56.978Z,99518.66
2019-04-25T12:35:30.813Z,99519.19
2019-04-25T12:38:04.692Z,99517.85
2019-04-25T12:40:37.801Z,99523.23
2019-04-25T12:43:13.755Z,99522.23
2019-04-25T12:46:04.528Z,99514.47
2019-04-25T12:48:38.410Z,99514.77
2019-04-25T12:51:13.470Z,99512.17
2019-04-25T12:53:48.011Z,99511.97
2019-04-25T12:56:24.569Z,99513.05
2019-04-25T12:58:57.417Z,99512.75
2019-04-25T13:01:31.323Z,99515.30
2019-04-25T13:04:05.277Z,99513.42
2019-04-25T13:06:40.498Z,99515.15
2019-04-25T13:09:14.523Z,99505.36
2019-04-25T13:11:47.863Z,99514.25
2019-04-25T13:14:21.766Z,99517.12
2019-04-25T13:16:55.639Z,99519.17
2019-04-25T13:19:29.454Z,99517.48
2019-04-25T13:22:03.519Z,99517.45
2019-04-25T13:24:37.497Z,99514.41
2019-04-25T13:27:13.886Z,99523.52
2019-04-25T13:30:01.516Z,99506.31
2019-04-25T13:32:49.325Z,99518.75
2019-04-25T13:35:27.865Z,99514.69
2019-04-25T13:38:01.868Z,99513.70
2019-04-25T13:40:34.969Z,99515.41
2019-04-25T13:43:08.784Z,99512.06
2019-04-25T13:45:42.689Z,99512.92
2019-04-25T13:48:16.647Z,99512.75
2019-04-25T13:50:49.805Z,99517.45
2019-04-25T13:53:24.654Z,99501.44
2019-04-25T13:55:59.690Z,99511.25
2019-04-25T13:58:34.319Z,99503.16
2019-04-25T14:01:13.223Z,99505.66
2019-04-25T14:03:45.624Z,99505.33
2019-04-25T14:06:20.078Z,99513.77
2019-04-25T14:08:54.781Z,99507.67
2019-04-25T14:11:28.975Z,99507.99
2019-04-25T14:14:02.912Z,99513.39
2019-04-25T14:16:37.684Z,99512.05
2019-04-25T14:19:27.678Z,99512.39
2019-04-25T14:22:04.310Z,99511.06
2019-04-25T14:24:38.282Z,99510.39
2019-04-25T14:27:14.839Z,99518.46
2019-04-25T14:29:48.958Z,99515.44
2019-04-25T14:32:30.071Z,99508.33
2019-04-25T14:35:08.711Z,99506.16
2019-04-25T14:37:45.568Z,99505.99
2019-04-25T14:40:20.485Z,99509.00
2019-04-25T14:43:09.975Z,99507.67
2019-04-25T14:45:46.272Z,99514.08
2019-04-25T14:48:24.762Z,99514.75
2019-04-25T14:50:59.416Z,99512.72
2019-04-25T14:53:35.145Z,99511.63
2019-04-25T14:56:21.515Z,99513.30
2019-04-25T14:58:57.240Z,99504.84
2019-04-25T15:01:44.248Z,99500.13
2019-04-25T15:04:08.076Z,99507.84
2019-04-25T15:06:45.967Z,99499.42
2019-04-25T15:09:20.967Z,99501.61
2019-04-25T15:11:55.385Z,99504.97
2019-04-25T15:14:29.809Z,99502.27
2019-04-25T15:17:05.304Z,99505.13
2019-04-25T15:19:39.353Z,99512.49
2019-04-25T15:22:14.646Z,99510.46
2019-04-25T15:24:49.231Z,99512.13
2019-04-25T15:27:24.106Z,99511.06
2019-04-25T15:29:59.225Z,99503.98
2019-04-25T15:32:35.191Z,99501.31
2019-04-25T15:35:10.816Z,99509.09
2019-04-25T15:37:49.069Z,99505.05
2019-04-25T15:40:25.254Z,99505.05
2019-04-25T15:43:19.231Z,99508.73
2019-04-25T15:46:03.956Z,99507.70
2019-04-25T15:48:38.538Z,99507.68
2019-04-25T15:51:12.912Z,99508.71
2019-04-25T15:53:47.043Z,99515.73
2019-04-25T15:56:21.233Z,99513.31
2019-04-25T15:58:55.258Z,99507.58
2019-04-25T16:01:28.550Z,99513.23
2019-04-25T16:04:02.394Z,99513.19
2019-04-25T16:06:36.377Z,99518.18
2019-04-25T16:09:10.525Z,99516.80
2019-04-25T16:11:47.113Z,99515.91
2019-04-25T16:14:21.113Z,99511.17
2019-04-25T16:16:54.157Z,99517.05
2019-04-25T16:19:28.241Z,99513.66
2019-04-25T16:22:02.275Z,99520.05
2019-04-25T16:24:36.742Z,99516.66
2019-04-25T16:27:12.437Z,99519.35
2019-04-25T16:29:46.286Z,99515.81
2019-04-25T16:32:21.886Z,99516.31
2019-04-25T16:34:55.850Z,99516.81
2019-04-25T16:37:30.359Z,99519.34
2019-04-25T16:40:05.762Z,99516.45
2019-04-25T16:42:39.849Z,99520.64
2019-04-25T16:45:13.086Z,99516.91
2019-04-25T16:47:46.896Z,99518.20
2019-04-25T16:50:20.804Z,99522.84
2019-04-25T16:52:54.996Z,99522.15
2019-04-25T16:55:29.493Z,99515.06
2019-04-25T16:58:04.649Z,99522.58
2019-04-25T17:00:40.839Z,99520.32
2019-04-25T17:03:16.236Z,99522.44
2019-04-25T17:05:50.186Z,99522.19
2019-04-25T17:08:24.035Z,99526.00
2019-04-25T17:10:58.291Z,99528.14
2019-04-25T17:13:34.030Z,99527.42
2019-04-25T17:16:15.723Z,99530.40
2019-04-25T17:19:00.407Z,99525.64
2019-04-25T17:21:34.792Z,99527.92
2019-04-25T17:24:08.876Z,99532.24
2019-04-25T17:26:42.892Z,99533.03
2019-04-25T17:29:17.589Z,99536.16
2019-04-25T17:31:55.881Z,99542.98
2019-04-25T17:34:49.710Z,99544.41
2019-04-25T17:37:34.675Z,99545.69
2019-04-25T17:40:13.061Z,99547.00
2019-04-25T17:42:46.926Z,99546.20
2019-04-25T17:45:22.525Z,99547.97
2019-04-25T17:47:56.383Z,99554.13
2019-04-25T17:50:30.232Z,99551.89
2019-04-25T17:53:04.238Z,99549.28
2019-04-25T17:55:37.451Z,99554.97
2019-04-25T17:58:11.474Z,99557.23
2019-04-25T18:00:45.779Z,99561.01
2019-04-25T18:03:20.265Z,99558.95
2019-04-25T18:05:54.245Z,99561.71
2019-04-25T18:08:28.314Z,99561.28
2019-04-25T18:11:01.590Z,99567.20
2019-04-25T18:13:38.498Z,99576.83
2019-04-25T18:16:12.880Z,99574.02
2019-04-25T18:18:54.305Z,99571.75
2019-04-25T18:21:28.579Z,99576.14
2019-04-25T18:24:07.013Z,99576.72
2019-04-25T18:26:55.076Z,99583.62
2019-04-25T18:29:29.900Z,99585.80
2019-04-25T18:32:04.155Z,99585.72
2019-04-25T18:34:56.070Z,99590.18
2019-04-25T18:37:45.042Z,99585.16
2019-04-25T18:40:37.857Z,99587.76
2019-04-25T18:43:16.350Z,99588.92
2019-04-25T18:45:51.801Z,99593.96
2019-04-25T18:48:25.653Z,99596.36
2019-04-25T18:50:59.433Z,99594.86
2019-04-25T18:53:53.512Z,99587.97
2019-04-25T18:56:31.699Z,99596.70
2019-04-25T18:59:13.395Z,99590.59
2019-04-25T19:01:49.695Z,99590.42
2019-04-25T19:04:25.211Z,99591.23
2019-04-25T19:06:59.425Z,99600.14
2019-04-25T19:09:33.990Z,99596.67
2019-04-25T19:12:08.221Z,99600.58
2019-04-25T19:14:43.099Z,99596.72
2019-04-25T19:17:17.485Z,99602.58
2019-04-25T19:19:51.966Z,99600.45
2019-04-25T19:22:26.155Z,99601.23
2019-04-25T19:24:59.364Z,99602.72
2019-04-25T19:27:33.335Z,99600.10
2019-04-25T19:30:11.016Z,99599.30
2019-04-25T19:32:45.346Z,99601.12
2019-04-25T19:35:19.228Z,99603.36
2019-04-25T19:37:54.689Z,99603.85
2019-04-25T19:40:40.820Z,99601.95
2019-04-25T19:43:33.787Z,99603.08
2019-04-25T19:46:07.609Z,99605.88
2019-04-25T19:48:42.705Z,99602.84
2019-04-25T19:51:16.534Z,99603.94
2019-04-25T19:53:51.308Z,99599.96
2019-04-25T19:56:25.579Z,99605.94
2019-04-25T19:58:59.552Z,99603.91
2019-04-25T20:01:33.402Z,99604.87
2019-04-25T20:04:12.009Z,99605.02
2019-04-25T20:07:03.920Z,99604.29
2019-04-25T20:09:56.190Z,99603.92
2019-04-25T20:12:40.894Z,99606.34
2019-04-25T20:15:20.078Z,99604.39
2019-04-25T20:17:54.385Z,99602.48
2019-04-25T20:20:27.929Z,99602.83
2019-04-25T20:23:02.009Z,99610.22
2019-04-25T20:25:35.438Z,99599.05
2019-04-25T20:28:09.585Z,99602.59
2019-04-25T20:30:42.792Z,99595.98
2019-04-25T20:33:17.267Z,99598.06
2019-04-25T20:35:51.360Z,99599.38
2019-04-25T20:38:24.869Z,99591.27
2019-04-25T20:40:58.895Z,99593.20
2019-04-25T20:43:32.979Z,99587.14
2019-04-25T20:46:06.386Z,99593.30
2019-04-25T20:48:40.535Z,99593.64
2019-04-25T20:51:14.492Z,99590.13
2019-04-25T20:53:48.910Z,99591.31
2019-04-25T20:56:23.013Z,99592.42
2019-04-25T20:58:56.096Z,99587.43
2019-04-25T21:01:30.357Z,99594.21
2019-04-25T21:04:13.095Z,99588.95
2019-04-25T21:06:41.328Z,99589.55
2019-04-25T21:09:15.459Z,99595.02
2019-04-25T21:11:49.837Z,99588.10
2019-04-25T21:14:25.339Z,99593.28
2019-04-25T21:17:00.744Z,99588.66
2019-04-25T21:19:36.233Z,99586.58
2019-04-25T21:22:10.036Z,99586.09
2019-04-25T21:24:44.032Z,99588.61
2019-04-25T21:27:17.887Z,99599.55
2019-04-25T21:29:52.139Z,99593.69
2019-04-25T21:32:26.078Z,99590.02
2019-04-25T21:35:00.119Z,99597.26
2019-04-25T21:37:34.081Z,99593.88
2019-04-25T21:40:09.398Z,99593.03
2019-04-25T21:42:45.116Z,99594.84
2019-04-25T21:45:19.154Z,99590.32
2019-04-25T21:47:54.040Z,99587.28
2019-04-25T21:50:29.015Z,99589.93
2019-04-25T21:53:02.362Z,99587.33
2019-04-25T21:55:37.286Z,99585.77
2019-04-25T21:58:11.607Z,99580.97
2019-04-25T22:00:47.600Z,99582.17
2019-04-25T22:03:23.521Z,99583.61
2019-04-25T22:05:58.600Z,99586.85
2019-04-25T22:08:32.634Z,99583.55
2019-04-25T22:11:06.645Z,99580.52
2019-04-25T22:13:40.817Z,99581.98
2019-04-25T22:16:15.219Z,99584.32
2019-04-25T22:18:49.521Z,99586.10
2019-04-25T22:21:23.129Z,99582.32
2019-04-25T22:24:06.103Z,99582.05
2019-04-25T22:26:34.202Z,99581.06
2019-04-25T22:29:08.505Z,99581.27
2019-04-25T22:31:52.549Z,99575.95
2019-04-25T22:34:28.224Z,99578.82
2019-04-25T22:37:02.162Z,99579.81
2019-04-25T22:39:36.237Z,99573.98
2019-04-25T22:42:10.495Z,99576.84
2019-04-25T22:44:44.755Z,99583.91
2019-04-25T22:47:18.633Z,99578.45
2019-04-25T22:49:52.534Z,99579.03
2019-04-25T22:52:25.896Z,99577.52
2019-04-25T22:54:59.865Z,99573.50
2019-04-25T22:57:34.809Z,99575.23
2019-04-25T23:00:11.326Z,99572.91
2019-04-25T23:02:47.185Z,99568.27
2019-04-25T23:05:22.778Z,99572.84
2019-04-25T23:07:56.758Z,99569.33
2019-04-25T23:10:30.370Z,99571.98
2019-04-25T23:13:04.640Z,99565.09
2019-04-25T23:15:38.574Z,99573.17
2019-04-25T23:18:13.402Z,99573.17
2019-04-25T23:20:47.314Z,99568.16
2019-04-25T23:23:21.261Z,99567.50
2019-04-25T23:25:56.761Z,99561.66
2019-04-25T23:28:32.561Z,99565.47
2019-04-25T23:31:11.111Z,99567.60
2019-04-25T23:33:45.341Z,99567.80
2019-04-25T23:36:19.422Z,99562.78
2019-04-25T23:38:53.371Z,99560.61
2019-04-25T23:41:27.701Z,99569.91
2019-04-25T23:44:01.637Z,99563.02
2019-04-25T23:46:35.891Z,99564.06
2019-04-25T23:49:10.621Z,99562.36
2019-04-25T23:51:44.604Z,99557.24
2019-04-25T23:54:18.709Z,99562.55
2019-04-25T23:56:51.851Z,99555.77
2019-04-25T23:59:25.949Z,99560.89
